Westwego, Louisiana
Current Conditions -  °F | °C
As of 2:15 AM on Saturday 25 Oct 2014 (Local Time) from KVSH Reporting Station
Clear Clear  
Wind Chill: 66°   Ceiling: Unl
Heat Index: 66°   Visibility: 10mi
Dew Point: 48°   Wind: 6mph
Humidity: 52%   Direction: 20°NNE
Pressure: 30.1"   Gusts: NA
Location:  29.91°N, 90.14°W
Report Text: KVSH 250715Z AUTO 02005KT 10SM CLR 19/09 A3010 RMK AO1
Loading
Personal Weather Stations






























Interactive Weather Map New forecast layout! Learn more

10-Day Weather Forecast

Advertisements
Track Severe Weather on mobile